createdAt,value
2023-02-24T00:01:54.433Z,101734.00
2023-02-24T00:04:21.290Z,101735.00
2023-02-24T00:06:48.933Z,101729.00
2023-02-24T00:09:19.415Z,101727.00
2023-02-24T00:11:48.744Z,101730.00
2023-02-24T00:14:16.467Z,101726.00
2023-02-24T00:16:44.593Z,101726.00
2023-02-24T00:19:20.843Z,101724.00
2023-02-24T00:21:48.147Z,101726.00
2023-02-24T00:24:14.856Z,101721.00
2023-02-24T00:26:41.940Z,101713.00
2023-02-24T00:29:11.242Z,101707.00
2023-02-24T00:31:42.114Z,101703.00
2023-02-24T00:34:12.255Z,101702.00
2023-02-24T00:36:39.213Z,101699.00
2023-02-24T00:39:11.174Z,101694.00
2023-02-24T00:41:43.614Z,101696.00
2023-02-24T00:44:13.423Z,101698.00
2023-02-24T00:46:45.068Z,101688.00
2023-02-24T00:49:17.239Z,101687.00
2023-02-24T00:51:46.840Z,101684.00
2023-02-24T00:54:15.074Z,101684.00
2023-02-24T00:56:47.543Z,101687.00
2023-02-24T00:59:16.236Z,101675.00
2023-02-24T01:01:45.264Z,101676.00
2023-02-24T01:04:12.892Z,101677.00
2023-02-24T01:06:42.581Z,101674.00
2023-02-24T01:09:15.878Z,101677.00
2023-02-24T01:12:22.667Z,101669.00
2023-02-24T01:14:51.834Z,101657.00
2023-02-24T01:17:20.145Z,101655.00
2023-02-24T01:19:49.204Z,101654.00
2023-02-24T01:22:20.621Z,101652.00
2023-02-24T01:24:48.628Z,101641.00
2023-02-24T01:27:19.838Z,101632.00
2023-02-24T01:29:47.736Z,101636.00
2023-02-24T01:32:20.114Z,101626.00
2023-02-24T01:34:47.190Z,101629.00
2023-02-24T01:37:16.558Z,101620.00
2023-02-24T01:39:45.164Z,101619.00
2023-02-24T01:42:16.702Z,101612.00
2023-02-24T01:44:43.742Z,101606.00
2023-02-24T01:47:11.326Z,101601.00
2023-02-24T01:49:43.943Z,101598.00
2023-02-24T01:52:15.383Z,101593.00
2023-02-24T01:54:49.692Z,101585.00
2023-02-24T01:57:19.969Z,101581.00
2023-02-24T01:59:50.577Z,101581.00
2023-02-24T02:02:18.095Z,101586.00
2023-02-24T02:04:50.923Z,101585.00
2023-02-24T02:07:21.985Z,101581.00
2023-02-24T02:09:50.639Z,101575.00
2023-02-24T02:12:17.461Z,101568.00
2023-02-24T02:14:52.454Z,101576.00
2023-02-24T02:17:28.070Z,101571.00
2023-02-24T02:19:55.573Z,101566.00
2023-02-24T02:22:59.631Z,101562.00
2023-02-24T02:25:55.575Z,101563.00
2023-02-24T02:28:57.018Z,101557.00
2023-02-24T02:32:07.750Z,101559.00
2023-02-24T02:34:53.800Z,101550.00
2023-02-24T02:37:41.460Z,101546.00
2023-02-24T02:40:21.155Z,101540.00
2023-02-24T02:42:51.298Z,101535.00
2023-02-24T02:45:41.177Z,101528.00
2023-02-24T02:48:16.915Z,101530.00
2023-02-24T02:51:17.101Z,101521.00
2023-02-24T02:53:56.090Z,101522.00
2023-02-24T02:56:37.238Z,101526.00
2023-02-24T02:59:07.047Z,101520.00
2023-02-24T03:01:37.408Z,101516.00
2023-02-24T03:04:08.393Z,101520.00
2023-02-24T03:06:47.520Z,101513.00
2023-02-24T03:09:23.955Z,101513.00
2023-02-24T03:12:02.234Z,101504.00
2023-02-24T03:14:37.679Z,101501.00
2023-02-24T03:17:12.881Z,101499.00
2023-02-24T03:19:39.998Z,101498.00
2023-02-24T03:22:14.082Z,101494.00
2023-02-24T03:24:42.362Z,101494.00
2023-02-24T03:27:13.719Z,101493.00
2023-02-24T03:29:50.390Z,101484.00
2023-02-24T03:32:34.996Z,101478.00
2023-02-24T03:35:13.642Z,101477.00
2023-02-24T03:37:41.175Z,101469.00
2023-02-24T03:40:11.890Z,101477.00
2023-02-24T03:42:42.224Z,101468.00
2023-02-24T03:45:09.974Z,101469.00
2023-02-24T03:47:37.509Z,101470.00
2023-02-24T03:50:13.709Z,101475.00
2023-02-24T03:53:08.326Z,101462.00
2023-02-24T03:55:59.015Z,101464.00
2023-02-24T03:58:52.226Z,101472.00
2023-02-24T04:01:28.668Z,101462.00
2023-02-24T04:04:12.257Z,101463.00
2023-02-24T04:06:55.824Z,101458.00
2023-02-24T04:09:40.780Z,101443.00
2023-02-24T04:12:17.206Z,101454.00
2023-02-24T04:14:50.422Z,101449.00
2023-02-24T04:17:22.290Z,101440.00
2023-02-24T04:19:51.724Z,101432.00
2023-02-24T04:22:24.636Z,101430.00
2023-02-24T04:24:56.940Z,101439.00
2023-02-24T04:27:24.265Z,101441.00
2023-02-24T04:29:54.577Z,101434.00
2023-02-24T04:32:28.379Z,101425.00
2023-02-24T04:35:02.653Z,101435.00
2023-02-24T04:37:33.883Z,101431.00
2023-02-24T04:40:00.696Z,101422.00
2023-02-24T04:42:28.211Z,101413.00
2023-02-24T04:44:58.666Z,101414.00
2023-02-24T04:47:28.802Z,101414.00
2023-02-24T04:49:55.420Z,101411.00
2023-02-24T04:52:22.018Z,101404.00
2023-02-24T04:54:48.610Z,101403.00
2023-02-24T04:57:15.161Z,101400.00
2023-02-24T04:59:41.896Z,101388.00
2023-02-24T05:02:08.444Z,101399.00
2023-02-24T05:04:38.852Z,101384.00
2023-02-24T05:07:05.687Z,101385.00
2023-02-24T05:09:32.331Z,101386.00
2023-02-24T05:12:00.302Z,101383.00
2023-02-24T05:14:27.292Z,101370.00
2023-02-24T05:17:00.151Z,101369.00
2023-02-24T05:19:45.429Z,101365.00
2023-02-24T05:22:14.458Z,101368.00
2023-02-24T05:24:41.226Z,101361.00
2023-02-24T05:27:08.594Z,101360.00
2023-02-24T05:29:35.668Z,101365.00
2023-02-24T05:32:04.672Z,101366.00
2023-02-24T05:34:32.878Z,101360.00
2023-02-24T05:37:01.936Z,101352.00
2023-02-24T05:39:28.652Z,101350.00
2023-02-24T05:41:57.286Z,101355.00
2023-02-24T05:44:26.629Z,101351.00
2023-02-24T05:46:59.000Z,101363.00
2023-02-24T05:49:29.463Z,101364.00
2023-02-24T05:51:58.019Z,101356.00
2023-02-24T05:54:37.272Z,101361.00
2023-02-24T05:57:17.139Z,101362.00
2023-02-24T05:59:44.794Z,101355.00
2023-02-24T06:02:14.085Z,101349.00
2023-02-24T06:04:51.185Z,101345.00
2023-02-24T06:07:19.626Z,101332.00
2023-02-24T06:09:53.583Z,101333.00
2023-02-24T06:12:22.706Z,101325.00
2023-02-24T06:14:49.402Z,101324.00
2023-02-24T06:17:18.608Z,101314.00
2023-02-24T06:19:49.397Z,101306.00
2023-02-24T06:22:21.496Z,101300.00
2023-02-24T06:24:49.366Z,101294.00
2023-02-24T06:27:18.761Z,101294.00
2023-02-24T06:29:50.065Z,101284.00
2023-02-24T06:32:24.874Z,101280.00
2023-02-24T06:34:51.935Z,101273.00
2023-02-24T06:37:18.581Z,101266.00
2023-02-24T06:39:45.246Z,101259.00
2023-02-24T06:42:12.705Z,101258.00
2023-02-24T06:44:41.309Z,101270.00
2023-02-24T06:47:11.433Z,101268.00
2023-02-24T06:49:38.050Z,101263.00
2023-02-24T06:52:05.938Z,101261.00
2023-02-24T06:54:35.865Z,101264.00
2023-02-24T06:57:03.585Z,101255.00
2023-02-24T06:59:30.432Z,101260.00
2023-02-24T07:01:58.750Z,101262.00
2023-02-24T07:04:28.483Z,101264.00
2023-02-24T07:06:58.208Z,101271.00
2023-02-24T07:09:26.832Z,101265.00
2023-02-24T07:11:56.100Z,101273.00
2023-02-24T07:14:25.194Z,101276.00
2023-02-24T07:16:54.666Z,101286.00
2023-02-24T07:19:24.276Z,101278.00
2023-02-24T07:21:52.645Z,101276.00
2023-02-24T07:24:33.224Z,101282.00
2023-02-24T07:27:05.918Z,101265.00
2023-02-24T07:29:33.519Z,101275.00
2023-02-24T07:32:03.652Z,101275.00
2023-02-24T07:34:31.168Z,101268.00
2023-02-24T07:36:58.832Z,101272.00
2023-02-24T07:39:25.912Z,101272.00
2023-02-24T07:41:57.290Z,101269.00
2023-02-24T07:44:24.546Z,101268.00
2023-02-24T07:46:51.964Z,101255.00
2023-02-24T07:49:26.031Z,101247.00
2023-02-24T07:51:57.714Z,101244.00
2023-02-24T07:54:25.769Z,101259.00
2023-02-24T07:56:59.389Z,101250.00
2023-02-24T07:59:28.258Z,101249.00
2023-02-24T08:01:56.039Z,101245.00
2023-02-24T08:04:28.583Z,101240.00
2023-02-24T08:07:02.677Z,101247.00
2023-02-24T08:09:53.201Z,101249.00
2023-02-24T08:12:22.547Z,101246.00
2023-02-24T08:14:51.769Z,101254.00
2023-02-24T08:17:20.734Z,101246.00
2023-02-24T08:19:48.940Z,101240.00
2023-02-24T08:22:19.600Z,101236.00
2023-02-24T08:24:50.254Z,101240.00
2023-02-24T08:27:20.304Z,101228.00
2023-02-24T08:29:58.512Z,101223.00
2023-02-24T08:32:34.014Z,101221.00
2023-02-24T08:35:03.627Z,101207.00
2023-02-24T08:37:39.673Z,101203.00
2023-02-24T08:40:30.439Z,101195.00
2023-02-24T08:43:19.426Z,101199.00
2023-02-24T08:45:57.361Z,101182.00
2023-02-24T08:48:26.981Z,101185.00
2023-02-24T08:51:00.807Z,101185.00
2023-02-24T08:53:31.586Z,101181.00
2023-02-24T08:56:00.844Z,101180.00
2023-02-24T08:58:27.441Z,101185.00
2023-02-24T09:00:59.509Z,101175.00
2023-02-24T09:03:28.783Z,101168.00
2023-02-24T09:06:01.118Z,101162.00
2023-02-24T09:08:32.723Z,101157.00
2023-02-24T09:11:08.010Z,101152.00
2023-02-24T09:13:43.131Z,101141.00
2023-02-24T09:16:16.606Z,101145.00
2023-02-24T09:18:43.498Z,101141.00
2023-02-24T09:21:33.527Z,101129.00
2023-02-24T09:24:03.514Z,101126.00
2023-02-24T09:26:33.127Z,101131.00
2023-02-24T09:28:59.863Z,101132.00
2023-02-24T09:31:40.845Z,101118.00
2023-02-24T09:34:10.457Z,101135.00
2023-02-24T09:36:45.113Z,101117.00
2023-02-24T09:39:14.641Z,101108.00
2023-02-24T09:41:53.890Z,101109.00
2023-02-24T09:44:29.641Z,101110.00
2023-02-24T09:47:09.164Z,101100.00
2023-02-24T09:49:59.200Z,101110.00
2023-02-24T09:52:51.038Z,101116.00
2023-02-24T09:56:05.700Z,101114.00
2023-02-24T09:58:50.041Z,101115.00
2023-02-24T10:01:43.046Z,101110.00
2023-02-24T10:04:36.117Z,101111.00
2023-02-24T10:07:10.076Z,101107.00
2023-02-24T10:09:43.992Z,101112.00
2023-02-24T10:12:21.827Z,101101.00
2023-02-24T10:15:18.511Z,101094.00
2023-02-24T10:17:55.378Z,101082.00
2023-02-24T10:20:40.205Z,101082.00
2023-02-24T10:23:14.995Z,101087.00
2023-02-24T10:26:06.825Z,101091.00
2023-02-24T10:28:46.047Z,101089.00
2023-02-24T10:31:26.762Z,101093.00
2023-02-24T10:34:01.179Z,101090.00
2023-02-24T10:36:35.266Z,101084.00
2023-02-24T10:39:25.589Z,101084.00
2023-02-24T10:42:15.634Z,101082.00
2023-02-24T10:45:01.320Z,101080.00
2023-02-24T10:47:31.216Z,101080.00
2023-02-24T10:50:03.054Z,101071.00
2023-02-24T10:52:37.193Z,101070.00
2023-02-24T10:55:28.192Z,101065.00
2023-02-24T10:58:06.308Z,101055.00
2023-02-24T11:01:12.459Z,101064.00
2023-02-24T11:03:48.184Z,101061.00
2023-02-24T11:06:30.874Z,101054.00
2023-02-24T11:09:18.492Z,101051.00
2023-02-24T11:12:07.123Z,101043.00
2023-02-24T11:15:05.508Z,101056.00
2023-02-24T11:17:33.429Z,101041.00
2023-02-24T11:20:10.851Z,101045.00
2023-02-24T11:22:43.212Z,101049.00
2023-02-24T11:25:26.467Z,101049.00
2023-02-24T11:27:56.987Z,101039.00
2023-02-24T11:30:36.909Z,101045.00
2023-02-24T11:33:15.532Z,101035.00
2023-02-24T11:35:54.890Z,101033.00
2023-02-24T11:38:47.044Z,101034.00
2023-02-24T11:41:35.737Z,101027.00
2023-02-24T11:44:12.759Z,101025.00
2023-02-24T11:46:54.537Z,101023.00
2023-02-24T11:49:36.172Z,101013.00
2023-02-24T11:52:04.728Z,101015.00
2023-02-24T11:54:42.147Z,101015.00
2023-02-24T11:57:17.989Z,101009.00
2023-02-24T11:59:49.762Z,101014.00
2023-02-24T12:02:31.371Z,101005.00
2023-02-24T12:05:06.647Z,101008.00
2023-02-24T12:07:39.551Z,101009.00
2023-02-24T12:10:24.452Z,101011.00
2023-02-24T12:13:05.985Z,101004.00
2023-02-24T12:15:43.150Z,101007.00
2023-02-24T12:18:24.358Z,101002.00
2023-02-24T12:20:55.667Z,100996.00
2023-02-24T12:23:40.016Z,100989.00
2023-02-24T12:26:42.676Z,101000.00
2023-02-24T12:29:42.381Z,100991.00
2023-02-24T12:32:43.049Z,100990.00
2023-02-24T12:35:19.979Z,100977.00
2023-02-24T12:37:54.887Z,100985.00
2023-02-24T12:40:29.755Z,100985.00
2023-02-24T12:43:28.166Z,100977.00
2023-02-24T12:46:03.379Z,100971.00
2023-02-24T12:49:03.836Z,100975.00
2023-02-24T12:51:48.510Z,100971.00
2023-02-24T12:54:23.809Z,100963.00
2023-02-24T12:57:15.661Z,100967.00
2023-02-24T12:59:42.590Z,100970.00
2023-02-24T13:02:21.419Z,100962.00
2023-02-24T13:05:11.466Z,100961.00
2023-02-24T13:08:19.382Z,100957.00
2023-02-24T13:11:24.088Z,100958.00
2023-02-24T13:14:14.446Z,100957.00
2023-02-24T13:16:41.769Z,100958.00
2023-02-24T13:19:43.268Z,100952.00
2023-02-24T13:22:12.594Z,100956.00
2023-02-24T13:24:56.604Z,100944.00
2023-02-24T13:27:24.060Z,100940.00
2023-02-24T13:29:53.009Z,100944.00
2023-02-24T13:32:29.178Z,100940.00
2023-02-24T13:34:58.102Z,100936.00
2023-02-24T13:37:39.733Z,100928.00
2023-02-24T13:40:18.024Z,100930.00
2023-02-24T13:42:56.858Z,100920.00
2023-02-24T13:45:34.932Z,100920.00
2023-02-24T13:48:04.497Z,100924.00
2023-02-24T13:51:03.680Z,100914.00
2023-02-24T13:53:58.836Z,100908.00
2023-02-24T13:56:44.924Z,100918.00
2023-02-24T13:59:44.641Z,100916.00
2023-02-24T14:02:18.068Z,100922.00
2023-02-24T14:04:56.713Z,100917.00
2023-02-24T14:07:25.889Z,100913.00
2023-02-24T14:09:57.490Z,100906.00
2023-02-24T14:12:34.049Z,100901.00
2023-02-24T14:15:02.887Z,100907.00
2023-02-24T14:17:30.947Z,100908.00
2023-02-24T14:20:09.842Z,100913.00
2023-02-24T14:22:48.351Z,100902.00
2023-02-24T14:25:16.527Z,100906.00
2023-02-24T14:27:45.739Z,100902.00
2023-02-24T14:30:25.775Z,100895.00
2023-02-24T14:32:52.995Z,100905.00
2023-02-24T14:35:25.218Z,100901.00
2023-02-24T14:37:51.853Z,100903.00
2023-02-24T14:40:21.893Z,100887.00
2023-02-24T14:42:49.725Z,100890.00
2023-02-24T14:45:19.246Z,100894.00
2023-02-24T14:47:46.067Z,100892.00
2023-02-24T14:50:18.497Z,100892.00
2023-02-24T14:52:51.186Z,100885.00
2023-02-24T14:55:21.830Z,100883.00
2023-02-24T14:58:32.002Z,100882.00
2023-02-24T15:01:06.729Z,100889.00
2023-02-24T15:03:37.639Z,100887.00
2023-02-24T15:06:13.269Z,100887.00
2023-02-24T15:08:44.075Z,100886.00
2023-02-24T15:11:16.757Z,100889.00
2023-02-24T15:13:55.606Z,100887.00
2023-02-24T15:16:25.568Z,100882.00
2023-02-24T15:19:00.005Z,100876.00
2023-02-24T15:21:29.586Z,100876.00
2023-02-24T15:24:39.057Z,100875.00
2023-02-24T15:27:22.720Z,100880.00
2023-02-24T15:30:09.165Z,100879.00
2023-02-24T15:32:39.054Z,100883.00
2023-02-24T15:35:06.367Z,100876.00
2023-02-24T15:37:45.146Z,100873.00
2023-02-24T15:40:21.740Z,100869.00
2023-02-24T15:42:57.005Z,100868.00
2023-02-24T15:45:34.549Z,100873.00
2023-02-24T15:48:03.511Z,100874.00
2023-02-24T15:50:31.977Z,100876.00
2023-02-24T15:53:00.897Z,100866.00
2023-02-24T15:55:28.937Z,100873.00
2023-02-24T15:58:03.679Z,100871.00
2023-02-24T16:00:31.368Z,100867.00
2023-02-24T16:02:58.761Z,100872.00
2023-02-24T16:05:26.194Z,100868.00
2023-02-24T16:07:54.781Z,100870.00
2023-02-24T16:10:24.287Z,100875.00
2023-02-24T16:12:56.714Z,100874.00
2023-02-24T16:15:25.310Z,100884.00
2023-02-24T16:17:53.167Z,100878.00
2023-02-24T16:20:31.510Z,100873.00
2023-02-24T16:23:00.087Z,100867.00
2023-02-24T16:25:27.887Z,100875.00
2023-02-24T16:27:57.430Z,100875.00
2023-02-24T16:30:30.405Z,100875.00
2023-02-24T16:32:58.693Z,100879.00
2023-02-24T16:35:26.556Z,100892.00
2023-02-24T16:37:53.223Z,100885.00
2023-02-24T16:40:27.956Z,100888.00
2023-02-24T16:42:54.583Z,100880.00
2023-02-24T16:45:21.947Z,100883.00
2023-02-24T16:47:49.841Z,100874.00
2023-02-24T16:50:22.706Z,100882.00
2023-02-24T16:52:49.942Z,100879.00
2023-02-24T16:55:16.955Z,100893.00
2023-02-24T16:57:43.630Z,100897.00
2023-02-24T17:00:13.175Z,100898.00
2023-02-24T17:02:42.001Z,100895.00
2023-02-24T17:05:19.655Z,100900.00
2023-02-24T17:07:50.514Z,100894.00
2023-02-24T17:10:18.366Z,100892.00
2023-02-24T17:12:45.491Z,100894.00
2023-02-24T17:15:16.058Z,100903.00
2023-02-24T17:17:43.208Z,100901.00
2023-02-24T17:20:13.428Z,100903.00
2023-02-24T17:22:40.003Z,100910.00
2023-02-24T17:25:07.301Z,100921.00
2023-02-24T17:27:34.058Z,100910.00
2023-02-24T17:30:00.658Z,100910.00
2023-02-24T17:32:27.474Z,100919.00
2023-02-24T17:34:54.198Z,100917.00
2023-02-24T17:37:20.983Z,100914.00
2023-02-24T17:39:47.567Z,100922.00
2023-02-24T17:42:14.265Z,100922.00
2023-02-24T17:44:40.865Z,100930.00
2023-02-24T17:47:09.075Z,100937.00
2023-02-24T17:49:35.671Z,100933.00
2023-02-24T17:52:06.268Z,100932.00
2023-02-24T17:54:33.211Z,100936.00
2023-02-24T17:56:59.771Z,100940.00
2023-02-24T17:59:26.383Z,100941.00
2023-02-24T18:01:53.853Z,100947.00
2023-02-24T18:04:20.455Z,100948.00
2023-02-24T18:06:47.490Z,100943.00
2023-02-24T18:09:14.088Z,100949.00
2023-02-24T18:11:40.693Z,100950.00
2023-02-24T18:14:07.394Z,100962.00
2023-02-24T18:16:34.090Z,100960.00
2023-02-24T18:19:00.759Z,100961.00
2023-02-24T18:21:27.332Z,100955.00
2023-02-24T18:23:53.965Z,100957.00
2023-02-24T18:26:24.053Z,100965.00
2023-02-24T18:28:54.195Z,100957.00
2023-02-24T18:31:24.101Z,100958.00
2023-02-24T18:33:51.444Z,100953.00
2023-02-24T18:36:18.562Z,100963.00
2023-02-24T18:38:45.522Z,100966.00
2023-02-24T18:41:18.404Z,100962.00
2023-02-24T18:43:48.990Z,100962.00
2023-02-24T18:46:16.410Z,100966.00
2023-02-24T18:48:46.264Z,100963.00
2023-02-24T18:51:15.143Z,100967.00
2023-02-24T18:53:41.788Z,100963.00
2023-02-24T18:56:23.507Z,100966.00
2023-02-24T18:58:52.469Z,100970.00
2023-02-24T19:01:33.614Z,100959.00
2023-02-24T19:04:01.056Z,100959.00
2023-02-24T19:06:29.837Z,100965.00
2023-02-24T19:08:59.823Z,100969.00
2023-02-24T19:11:26.668Z,100970.00
2023-02-24T19:13:53.360Z,100963.00
2023-02-24T19:16:20.464Z,100968.00
2023-02-24T19:18:53.919Z,100971.00
2023-02-24T19:21:20.837Z,100969.00
2023-02-24T19:23:47.878Z,100972.00
2023-02-24T19:26:23.881Z,100975.00
2023-02-24T19:28:51.818Z,100980.00
2023-02-24T19:31:27.375Z,100979.00
2023-02-24T19:33:59.272Z,100985.00
2023-02-24T19:36:26.479Z,100981.00
2023-02-24T19:38:53.137Z,100985.00
2023-02-24T19:41:20.223Z,100997.00
2023-02-24T19:43:46.979Z,100999.00
2023-02-24T19:46:15.798Z,101001.00
2023-02-24T19:48:42.527Z,101001.00
2023-02-24T19:51:15.149Z,101008.00
2023-02-24T19:53:42.152Z,101011.00
2023-02-24T19:56:09.113Z,101014.00
2023-02-24T19:58:36.062Z,101010.00
2023-02-24T20:01:13.827Z,101013.00
2023-02-24T20:03:42.678Z,101004.00
2023-02-24T20:06:20.169Z,101006.00
2023-02-24T20:08:47.156Z,101001.00
2023-02-24T20:11:13.821Z,101006.00
2023-02-24T20:13:40.398Z,101011.00
2023-02-24T20:16:15.619Z,101011.00
2023-02-24T20:18:43.002Z,101021.00
2023-02-24T20:21:13.166Z,101014.00
2023-02-24T20:23:40.500Z,101013.00
2023-02-24T20:26:09.610Z,101018.00
2023-02-24T20:28:36.738Z,101024.00
2023-02-24T20:31:12.566Z,101020.00
2023-02-24T20:33:40.975Z,101024.00
2023-02-24T20:36:12.859Z,101018.00
2023-02-24T20:38:39.742Z,101032.00
2023-02-24T20:41:07.226Z,101034.00
2023-02-24T20:43:34.523Z,101038.00
2023-02-24T20:46:11.462Z,101033.00
2023-02-24T20:48:38.145Z,101032.00
2023-02-24T20:51:05.703Z,101034.00
2023-02-24T20:53:32.539Z,101044.00
2023-02-24T20:56:03.968Z,101040.00
2023-02-24T20:58:30.550Z,101046.00
2023-02-24T21:00:57.247Z,101042.00
2023-02-24T21:03:25.422Z,101039.00
2023-02-24T21:06:04.485Z,101040.00
2023-02-24T21:08:35.519Z,101046.00
2023-02-24T21:11:02.197Z,101045.00
2023-02-24T21:13:28.860Z,101052.00
2023-02-24T21:15:56.229Z,101046.00
2023-02-24T21:18:23.162Z,101051.00
2023-02-24T21:20:54.054Z,101053.00
2023-02-24T21:23:21.881Z,101048.00
2023-02-24T21:25:57.278Z,101046.00
2023-02-24T21:28:23.912Z,101045.00
2023-02-24T21:30:50.933Z,101040.00
2023-02-24T21:33:18.200Z,101042.00
2023-02-24T21:36:03.314Z,101050.00
2023-02-24T21:38:34.124Z,101053.00
2023-02-24T21:41:02.332Z,101057.00
2023-02-24T21:43:29.272Z,101068.00
2023-02-24T21:45:56.196Z,101086.00
2023-02-24T21:48:22.929Z,101080.00
2023-02-24T21:51:00.815Z,101083.00
2023-02-24T21:53:27.642Z,101088.00
2023-02-24T21:56:16.463Z,101073.00
2023-02-24T21:58:55.974Z,101077.00
2023-02-24T22:01:34.142Z,101076.00
2023-02-24T22:04:03.529Z,101076.00
2023-02-24T22:06:32.035Z,101078.00
2023-02-24T22:09:00.178Z,101077.00
2023-02-24T22:11:26.835Z,101078.00
2023-02-24T22:13:53.461Z,101084.00
2023-02-24T22:16:23.081Z,101085.00
2023-02-24T22:18:51.913Z,101080.00
2023-02-24T22:21:20.859Z,101087.00
2023-02-24T22:23:49.777Z,101082.00
2023-02-24T22:26:16.941Z,101085.00
2023-02-24T22:28:44.981Z,101088.00
2023-02-24T22:31:13.582Z,101082.00
2023-02-24T22:33:42.730Z,101082.00
2023-02-24T22:36:30.915Z,101084.00
2023-02-24T22:38:58.806Z,101084.00
2023-02-24T22:41:29.714Z,101091.00
2023-02-24T22:43:56.525Z,101105.00
2023-02-24T22:46:29.968Z,101111.00
2023-02-24T22:48:57.869Z,101094.00
2023-02-24T22:51:24.938Z,101093.00
2023-02-24T22:53:52.592Z,101076.00
2023-02-24T22:56:22.187Z,101089.00
2023-02-24T22:58:49.119Z,101087.00
2023-02-24T23:01:18.677Z,101085.00
2023-02-24T23:03:54.734Z,101094.00
2023-02-24T23:06:26.056Z,101089.00
2023-02-24T23:08:53.732Z,101087.00
2023-02-24T23:11:29.886Z,101090.00
2023-02-24T23:13:59.385Z,101091.00
2023-02-24T23:16:29.642Z,101090.00
2023-02-24T23:19:04.882Z,101081.00
2023-02-24T23:21:34.600Z,101092.00
2023-02-24T23:24:01.716Z,101090.00
2023-02-24T23:26:33.405Z,101091.00
2023-02-24T23:29:00.454Z,101088.00
2023-02-24T23:31:28.103Z,101080.00
2023-02-24T23:33:55.101Z,101080.00
2023-02-24T23:36:23.387Z,101086.00
2023-02-24T23:38:50.294Z,101081.00
2023-02-24T23:41:17.806Z,101092.00
2023-02-24T23:43:44.674Z,101096.00
2023-02-24T23:46:13.166Z,101105.00
2023-02-24T23:48:40.092Z,101110.00
2023-02-24T23:51:13.955Z,101110.00
2023-02-24T23:53:42.413Z,101107.00
2023-02-24T23:56:11.249Z,101105.00
2023-02-24T23:58:37.973Z,101110.00
